createdAt,value
2023-05-07T00:02:29.219Z,4.10
2023-05-07T00:05:14.924Z,4.57
2023-05-07T00:07:59.802Z,3.63
2023-05-07T00:10:43.918Z,3.00
2023-05-07T00:13:28.427Z,3.50
2023-05-07T00:16:12.414Z,6.80
2023-05-07T00:18:56.313Z,4.40
2023-05-07T00:21:41.605Z,6.43
2023-05-07T00:24:25.502Z,4.20
2023-05-07T00:27:09.346Z,4.43
2023-05-07T00:29:53.363Z,6.23
2023-05-07T00:32:37.807Z,5.43
2023-05-07T00:35:21.915Z,6.10
2023-05-07T00:38:07.138Z,6.93
2023-05-07T00:40:51.673Z,7.17
2023-05-07T00:43:35.555Z,4.50
2023-05-07T00:46:20.036Z,6.27
2023-05-07T00:49:04.199Z,2.77
2023-05-07T00:51:48.516Z,2.60
2023-05-07T00:54:34.736Z,3.00
2023-05-07T00:57:19.293Z,2.63
2023-05-07T01:00:03.697Z,2.60
2023-05-07T01:02:49.847Z,3.00
2023-05-07T01:05:35.043Z,3.17
2023-05-07T01:08:20.245Z,4.13
2023-05-07T01:11:05.819Z,3.00
2023-05-07T01:13:51.967Z,2.90
2023-05-07T01:16:35.989Z,3.37
2023-05-07T01:19:21.024Z,5.30
2023-05-07T01:22:09.710Z,5.53
2023-05-07T01:25:05.127Z,5.20
2023-05-07T01:27:50.214Z,5.73
2023-05-07T01:30:36.952Z,6.20
2023-05-07T01:33:24.479Z,6.07
2023-05-07T01:36:10.330Z,5.07
2023-05-07T01:38:54.918Z,5.17
2023-05-07T01:41:40.659Z,5.63
2023-05-07T01:44:24.844Z,6.70
2023-05-07T01:47:09.358Z,5.17
2023-05-07T01:49:53.316Z,4.83
2023-05-07T01:52:38.608Z,5.80
2023-05-07T01:55:22.949Z,5.80
2023-05-07T01:58:08.192Z,4.97
2023-05-07T02:00:52.179Z,5.43
2023-05-07T02:03:36.102Z,6.33
2023-05-07T02:06:27.222Z,6.83
2023-05-07T02:09:18.728Z,7.27
2023-05-07T02:12:05.659Z,6.13
2023-05-07T02:14:51.731Z,6.43
2023-05-07T02:17:36.701Z,6.00
2023-05-07T02:20:20.659Z,4.70
2023-05-07T02:23:24.448Z,5.00
2023-05-07T02:26:08.696Z,3.43
2023-05-07T02:28:53.760Z,4.43
2023-05-07T02:31:39.513Z,4.00
2023-05-07T02:34:23.709Z,4.63
2023-05-07T02:37:07.611Z,4.67
2023-05-07T02:39:51.521Z,4.73
2023-05-07T02:42:35.437Z,5.20
2023-05-07T02:45:19.691Z,5.00
2023-05-07T02:48:07.436Z,3.90
2023-05-07T02:50:51.455Z,4.90
2023-05-07T02:53:35.433Z,4.77
2023-05-07T02:56:19.512Z,6.20
2023-05-07T02:59:03.527Z,4.20
2023-05-07T03:01:51.798Z,4.63
2023-05-07T03:04:37.321Z,4.17
2023-05-07T03:07:21.329Z,4.30
2023-05-07T03:10:06.140Z,5.70
2023-05-07T03:12:50.471Z,5.47
2023-05-07T03:15:35.383Z,5.90
2023-05-07T03:18:19.662Z,5.20
2023-05-07T03:21:05.207Z,4.23
2023-05-07T03:23:49.220Z,3.77
2023-05-07T03:26:33.418Z,5.20
2023-05-07T03:29:18.095Z,3.57
2023-05-07T03:32:02.211Z,4.13
2023-05-07T03:34:46.237Z,3.40
2023-05-07T03:37:32.800Z,4.13
2023-05-07T03:40:16.896Z,4.80
2023-05-07T03:43:07.910Z,3.93
2023-05-07T03:45:56.317Z,5.30
2023-05-07T03:48:43.688Z,4.60
2023-05-07T03:51:29.690Z,4.93
2023-05-07T03:54:14.935Z,4.50
2023-05-07T03:57:02.806Z,5.50
2023-05-07T03:59:46.765Z,4.30
2023-05-07T04:02:31.580Z,6.07
2023-05-07T04:05:16.907Z,5.83
2023-05-07T04:08:04.331Z,5.83
2023-05-07T04:10:58.672Z,5.00
2023-05-07T04:13:45.794Z,4.90
2023-05-07T04:16:29.880Z,8.07
2023-05-07T04:19:13.877Z,5.03
2023-05-07T04:21:58.000Z,5.23
2023-05-07T04:24:42.291Z,4.47
2023-05-07T04:27:29.172Z,4.13
2023-05-07T04:30:14.854Z,4.70
2023-05-07T04:32:59.108Z,5.00
2023-05-07T04:35:45.532Z,3.50
2023-05-07T04:38:29.800Z,4.27
2023-05-07T04:41:16.193Z,6.00
2023-05-07T04:44:02.866Z,3.93
2023-05-07T04:46:49.324Z,3.20
2023-05-07T04:49:33.282Z,4.30
2023-05-07T04:52:17.864Z,2.87
2023-05-07T04:55:02.236Z,3.60
2023-05-07T04:57:51.568Z,3.73
2023-05-07T05:00:37.062Z,3.70
2023-05-07T05:03:23.252Z,5.07
2023-05-07T05:06:07.599Z,4.00
2023-05-07T05:08:52.129Z,4.27
2023-05-07T05:11:35.984Z,3.80
2023-05-07T05:14:19.977Z,3.40
2023-05-07T05:17:05.365Z,3.83
2023-05-07T05:19:49.445Z,3.20
2023-05-07T05:22:33.225Z,2.90
2023-05-07T05:25:17.937Z,4.97
2023-05-07T05:28:02.452Z,2.90
2023-05-07T05:30:47.678Z,2.90
2023-05-07T05:33:34.908Z,3.60
2023-05-07T05:36:21.853Z,5.70
2023-05-07T05:39:07.508Z,3.97
2023-05-07T05:41:51.437Z,3.93
2023-05-07T05:44:35.666Z,6.17
2023-05-07T05:47:19.625Z,4.17
2023-05-07T05:50:07.068Z,3.87
2023-05-07T05:52:51.249Z,2.93
2023-05-07T05:55:36.657Z,3.10
2023-05-07T05:58:20.788Z,4.23
2023-05-07T06:01:10.696Z,2.50
2023-05-07T06:03:55.431Z,4.30
2023-05-07T06:06:41.048Z,2.97
2023-05-07T06:09:25.409Z,3.53
2023-05-07T06:12:09.513Z,2.73
2023-05-07T06:14:54.556Z,2.33
2023-05-07T06:17:38.736Z,2.13
2023-05-07T06:20:23.589Z,2.23
2023-05-07T06:23:09.739Z,1.90
2023-05-07T06:25:54.146Z,2.37
2023-05-07T06:28:42.413Z,2.67
2023-05-07T06:31:32.572Z,1.98
2023-05-07T06:34:20.918Z,2.55
2023-05-07T06:37:06.331Z,3.92
2023-05-07T06:40:09.965Z,2.10
2023-05-07T06:42:56.774Z,2.88
2023-05-07T06:45:49.091Z,2.83
2023-05-07T06:48:33.368Z,1.88
2023-05-07T06:51:22.112Z,2.90
2023-05-07T06:54:06.744Z,3.30
2023-05-07T06:56:54.860Z,2.88
2023-05-07T06:59:41.299Z,2.38
2023-05-07T07:02:26.229Z,3.25
2023-05-07T07:05:10.790Z,3.40
2023-05-07T07:07:55.794Z,2.97
2023-05-07T07:10:40.397Z,2.45
2023-05-07T07:13:26.552Z,2.40
2023-05-07T07:16:10.912Z,2.80
2023-05-07T07:18:55.492Z,3.45
2023-05-07T07:21:39.673Z,2.42
2023-05-07T07:24:23.638Z,1.75
2023-05-07T07:27:12.480Z,2.13
2023-05-07T07:29:58.569Z,2.28
2023-05-07T07:32:43.046Z,2.13
2023-05-07T07:35:27.244Z,2.63
2023-05-07T07:38:11.452Z,3.70
2023-05-07T07:40:56.189Z,2.35
2023-05-07T07:43:41.387Z,2.00
2023-05-07T07:46:28.141Z,2.20
2023-05-07T07:49:12.406Z,3.42
2023-05-07T07:51:57.592Z,2.50
2023-05-07T07:54:41.616Z,1.50
2023-05-07T07:57:26.175Z,3.35
2023-05-07T08:00:11.739Z,1.70
2023-05-07T08:03:04.447Z,1.58
2023-05-07T08:05:52.766Z,2.10
2023-05-07T08:08:42.312Z,2.38
2023-05-07T08:11:27.204Z,2.88
2023-05-07T08:14:13.815Z,1.85
2023-05-07T08:16:58.091Z,2.20
2023-05-07T08:19:43.912Z,1.80
2023-05-07T08:22:31.048Z,1.90
2023-05-07T08:25:15.404Z,2.50
2023-05-07T08:28:00.170Z,2.03
2023-05-07T08:30:44.623Z,1.90
2023-05-07T08:33:28.898Z,1.73
2023-05-07T08:36:16.055Z,2.38
2023-05-07T08:39:00.462Z,2.50
2023-05-07T08:41:47.118Z,2.20
2023-05-07T08:44:35.902Z,1.67
2023-05-07T08:47:22.173Z,1.77
2023-05-07T08:50:10.174Z,2.00
2023-05-07T08:52:57.659Z,1.95
2023-05-07T08:55:42.194Z,2.00
2023-05-07T08:58:26.503Z,1.50
2023-05-07T09:01:12.533Z,1.85
2023-05-07T09:03:57.493Z,1.27
2023-05-07T09:06:43.319Z,2.10
2023-05-07T09:09:31.390Z,1.98
2023-05-07T09:12:15.495Z,2.72
2023-05-07T09:14:59.671Z,2.78
2023-05-07T09:17:46.125Z,4.03
2023-05-07T09:20:33.167Z,1.88
2023-05-07T09:23:18.688Z,2.30
2023-05-07T09:26:05.936Z,2.35
2023-05-07T09:28:51.530Z,2.92
2023-05-07T09:31:39.284Z,3.25
2023-05-07T09:34:25.679Z,2.30
2023-05-07T09:37:10.261Z,2.50
2023-05-07T09:39:54.553Z,1.77
2023-05-07T09:42:42.466Z,2.15
2023-05-07T09:45:28.195Z,2.20
2023-05-07T09:48:13.983Z,1.48
2023-05-07T09:51:00.058Z,2.08
2023-05-07T09:53:48.399Z,1.88
2023-05-07T09:56:33.347Z,1.90
2023-05-07T09:59:19.862Z,2.42
2023-05-07T10:02:06.533Z,1.77
2023-05-07T10:04:57.156Z,1.55
2023-05-07T10:07:49.010Z,1.70
2023-05-07T10:10:36.582Z,1.63
2023-05-07T10:13:24.213Z,1.63
2023-05-07T10:16:13.502Z,1.90
2023-05-07T10:19:02.547Z,2.00
2023-05-07T10:21:53.688Z,2.00
2023-05-07T10:24:39.190Z,2.08
2023-05-07T10:27:29.267Z,2.05
2023-05-07T10:30:33.165Z,2.00
2023-05-07T10:33:24.616Z,1.73
2023-05-07T10:36:09.442Z,2.25
2023-05-07T10:38:54.611Z,3.40
2023-05-07T10:41:40.216Z,2.50
2023-05-07T10:44:29.483Z,1.70
2023-05-07T10:47:20.101Z,1.70
2023-05-07T10:50:25.842Z,1.92
2023-05-07T10:53:28.686Z,2.30
2023-05-07T10:56:39.200Z,1.65
2023-05-07T10:59:44.757Z,1.88
2023-05-07T11:03:08.439Z,2.42
2023-05-07T11:06:17.191Z,2.28
2023-05-07T11:09:27.447Z,2.67
2023-05-07T11:12:15.309Z,3.35
2023-05-07T11:15:07.999Z,2.90
2023-05-07T11:17:58.872Z,2.58
2023-05-07T11:20:48.767Z,2.70
2023-05-07T11:24:00.202Z,2.88
2023-05-07T11:26:53.884Z,2.78
2023-05-07T11:29:40.168Z,2.92
2023-05-07T11:32:30.777Z,2.72
2023-05-07T11:35:18.141Z,2.78
2023-05-07T11:38:07.186Z,2.75
2023-05-07T11:40:55.368Z,2.58
2023-05-07T11:43:41.223Z,2.30
2023-05-07T11:46:25.544Z,2.90
2023-05-07T11:49:09.653Z,2.78
2023-05-07T11:51:53.811Z,2.67
2023-05-07T11:54:40.231Z,3.05
2023-05-07T11:57:26.359Z,2.90
2023-05-07T12:00:11.900Z,2.92
2023-05-07T12:02:58.940Z,2.75
2023-05-07T12:05:43.740Z,3.17
2023-05-07T12:08:27.742Z,2.78
2023-05-07T12:11:14.876Z,2.80
2023-05-07T12:14:00.441Z,2.90
2023-05-07T12:16:45.275Z,3.22
2023-05-07T12:19:30.362Z,3.22
2023-05-07T12:22:15.227Z,3.25
2023-05-07T12:25:00.719Z,2.50
2023-05-07T12:27:54.321Z,3.05
2023-05-07T12:30:41.392Z,2.80
2023-05-07T12:33:27.694Z,2.78
2023-05-07T12:36:14.573Z,3.08
2023-05-07T12:38:58.555Z,3.20
2023-05-07T12:41:57.677Z,2.90
2023-05-07T12:44:44.488Z,3.17
2023-05-07T12:47:29.986Z,2.88
2023-05-07T12:50:15.285Z,2.97
2023-05-07T12:53:00.685Z,3.05
2023-05-07T12:55:46.077Z,3.03
2023-05-07T12:58:31.512Z,2.63
2023-05-07T13:01:16.855Z,2.65
2023-05-07T13:04:07.015Z,3.10
2023-05-07T13:06:54.176Z,2.90
2023-05-07T13:09:38.590Z,2.50
2023-05-07T13:12:22.613Z,2.95
2023-05-07T13:15:07.520Z,2.78
2023-05-07T13:17:51.573Z,2.78
2023-05-07T13:20:37.010Z,2.70
2023-05-07T13:23:21.121Z,2.75
2023-05-07T13:26:14.519Z,3.28
2023-05-07T13:29:09.471Z,3.03
2023-05-07T13:31:54.660Z,2.90
2023-05-07T13:34:38.941Z,2.67
2023-05-07T13:37:24.472Z,2.85
2023-05-07T13:40:10.216Z,3.33
2023-05-07T13:42:54.407Z,3.58
2023-05-07T13:45:38.235Z,2.83
2023-05-07T13:48:22.091Z,3.00
2023-05-07T13:51:06.032Z,2.95
2023-05-07T13:53:51.497Z,3.00
2023-05-07T13:56:35.593Z,2.78
2023-05-07T13:59:19.520Z,3.10
2023-05-07T14:02:03.350Z,2.95
2023-05-07T14:04:47.319Z,3.33
2023-05-07T14:07:31.347Z,2.50
2023-05-07T14:10:16.628Z,2.83
2023-05-07T14:13:00.731Z,2.83
2023-05-07T14:15:47.575Z,2.88
2023-05-07T14:18:31.634Z,3.03
2023-05-07T14:21:15.552Z,2.42
2023-05-07T14:23:59.434Z,2.45
2023-05-07T14:26:44.766Z,2.83
2023-05-07T14:29:28.619Z,2.50
2023-05-07T14:32:12.665Z,2.65
2023-05-07T14:34:56.514Z,2.50
2023-05-07T14:37:40.434Z,3.10
2023-05-07T14:40:24.549Z,2.50
2023-05-07T14:43:09.887Z,2.30
2023-05-07T14:45:54.665Z,2.25
2023-05-07T14:48:38.463Z,2.25
2023-05-07T14:51:23.173Z,2.58
2023-05-07T14:54:07.046Z,2.28
2023-05-07T14:56:51.389Z,2.70
2023-05-07T14:59:36.634Z,2.60
2023-05-07T15:02:21.222Z,2.63
2023-05-07T15:05:06.079Z,2.75
2023-05-07T15:07:49.920Z,3.22
2023-05-07T15:10:41.330Z,2.75
2023-05-07T15:13:25.486Z,2.50
2023-05-07T15:16:10.963Z,2.65
2023-05-07T15:18:54.849Z,2.92
2023-05-07T15:21:39.439Z,2.80
2023-05-07T15:24:23.239Z,3.30
2023-05-07T15:27:07.504Z,2.60
2023-05-07T15:29:51.763Z,2.92
2023-05-07T15:32:37.407Z,2.88
2023-05-07T15:35:23.202Z,3.05
2023-05-07T15:38:09.721Z,3.10
2023-05-07T15:40:53.887Z,3.83
2023-05-07T15:43:46.937Z,3.40
2023-05-07T15:46:31.080Z,3.97
2023-05-07T15:49:16.618Z,3.65
2023-05-07T15:52:00.691Z,2.85
2023-05-07T15:54:44.778Z,3.17
2023-05-07T15:57:28.880Z,3.10
2023-05-07T16:00:14.089Z,3.45
2023-05-07T16:02:58.299Z,3.10
2023-05-07T16:05:43.946Z,3.45
2023-05-07T16:08:28.343Z,3.63
2023-05-07T16:11:12.585Z,4.03
2023-05-07T16:13:56.594Z,3.35
2023-05-07T16:16:41.192Z,3.55
2023-05-07T16:19:25.251Z,3.65
2023-05-07T16:22:11.331Z,3.70
2023-05-07T16:24:55.374Z,3.47
2023-05-07T16:27:39.506Z,4.03
2023-05-07T16:30:23.725Z,3.30
2023-05-07T16:33:08.277Z,4.45
2023-05-07T16:35:55.856Z,4.90
2023-05-07T16:38:41.455Z,4.32
2023-05-07T16:41:26.385Z,4.38
2023-05-07T16:44:11.013Z,4.82
2023-05-07T16:46:55.019Z,5.53
2023-05-07T16:49:39.081Z,5.18
2023-05-07T16:52:23.214Z,4.88
2023-05-07T16:55:09.632Z,4.85
2023-05-07T16:57:53.777Z,5.07
2023-05-07T17:00:49.198Z,4.57
2023-05-07T17:03:35.168Z,5.10
2023-05-07T17:06:19.400Z,5.13
2023-05-07T17:09:03.587Z,5.20
2023-05-07T17:11:49.072Z,4.80
2023-05-07T17:14:33.268Z,4.47
2023-05-07T17:17:17.369Z,4.72
2023-05-07T17:20:01.588Z,3.80
2023-05-07T17:22:49.244Z,4.25
2023-05-07T17:25:33.691Z,4.38
2023-05-07T17:28:19.240Z,4.22
2023-05-07T17:31:03.197Z,4.47
2023-05-07T17:33:47.616Z,4.70
2023-05-07T17:36:33.190Z,4.63
2023-05-07T17:39:17.357Z,4.30
2023-05-07T17:42:01.664Z,4.53
2023-05-07T17:44:47.278Z,4.57
2023-05-07T17:47:31.583Z,4.60
2023-05-07T17:50:17.012Z,5.27
2023-05-07T17:53:02.177Z,5.13
2023-05-07T17:55:47.327Z,4.37
2023-05-07T17:58:31.725Z,4.53
2023-05-07T18:01:17.584Z,4.93
2023-05-07T18:04:01.905Z,4.20
2023-05-07T18:06:46.381Z,4.93
2023-05-07T18:09:30.482Z,5.23
2023-05-07T18:12:14.551Z,12.07
2023-05-07T18:14:58.936Z,9.20
2023-05-07T18:17:44.616Z,14.90
2023-05-07T18:20:28.790Z,10.37
2023-05-07T18:23:13.125Z,6.63
2023-05-07T18:25:57.235Z,5.77
2023-05-07T18:28:41.610Z,5.53
2023-05-07T18:31:25.600Z,6.23
2023-05-07T18:34:10.979Z,6.57
2023-05-07T18:36:54.878Z,5.47
2023-05-07T18:39:38.908Z,18.17
2023-05-07T18:42:23.087Z,6.20
2023-05-07T18:45:08.199Z,5.40
2023-05-07T18:47:52.782Z,4.97
2023-05-07T18:50:38.266Z,5.20
2023-05-07T18:53:22.342Z,5.77
2023-05-07T18:56:08.887Z,5.30
2023-05-07T18:58:52.909Z,5.37
2023-05-07T19:01:37.114Z,5.63
2023-05-07T19:04:21.217Z,6.00
2023-05-07T19:07:06.930Z,5.47
2023-05-07T19:10:04.221Z,5.43
2023-05-07T19:12:51.397Z,7.07
2023-05-07T19:15:35.789Z,8.63
2023-05-07T19:18:19.959Z,7.43
2023-05-07T19:21:03.809Z,7.97
2023-05-07T19:23:51.264Z,5.93
2023-05-07T19:26:35.545Z,8.43
2023-05-07T19:29:20.035Z,6.40
2023-05-07T19:32:04.691Z,5.33
2023-05-07T19:34:48.623Z,4.77
2023-05-07T19:37:32.589Z,6.00
2023-05-07T19:40:18.394Z,6.43
2023-05-07T19:43:03.984Z,5.03
2023-05-07T19:45:48.334Z,4.53
2023-05-07T19:48:32.341Z,4.20
2023-05-07T19:51:16.407Z,4.50
2023-05-07T19:54:03.686Z,4.37
2023-05-07T19:56:54.446Z,6.67
2023-05-07T19:59:38.319Z,4.93
2023-05-07T20:02:22.344Z,7.77
2023-05-07T20:05:07.032Z,4.33
2023-05-07T20:07:50.921Z,4.87
2023-05-07T20:10:37.774Z,4.53
2023-05-07T20:13:23.233Z,4.77
2023-05-07T20:16:07.369Z,5.00
2023-05-07T20:18:51.367Z,7.93
2023-05-07T20:21:35.326Z,12.33
2023-05-07T20:24:20.100Z,13.87
2023-05-07T20:27:06.843Z,6.70
2023-05-07T20:29:52.274Z,6.07
2023-05-07T20:32:36.543Z,10.37
2023-05-07T20:35:20.592Z,9.13
2023-05-07T20:38:04.543Z,8.17
2023-05-07T20:40:48.432Z,5.70
2023-05-07T20:43:32.220Z,7.70
2023-05-07T20:46:22.857Z,5.57
2023-05-07T20:49:07.095Z,6.30
2023-05-07T20:51:51.079Z,6.20
2023-05-07T20:54:40.087Z,5.37
2023-05-07T20:57:24.245Z,5.57
2023-05-07T21:00:09.493Z,5.37
2023-05-07T21:02:54.649Z,5.07
2023-05-07T21:05:38.680Z,5.77
2023-05-07T21:08:23.014Z,5.80
2023-05-07T21:11:08.029Z,5.07
2023-05-07T21:13:52.010Z,5.20
2023-05-07T21:16:36.084Z,6.03
2023-05-07T21:19:23.588Z,5.03
2023-05-07T21:22:07.764Z,5.17
2023-05-07T21:24:51.714Z,5.53
2023-05-07T21:27:35.659Z,4.83
2023-05-07T21:30:19.553Z,5.83
2023-05-07T21:33:04.879Z,4.93
2023-05-07T21:35:51.443Z,5.27
2023-05-07T21:38:35.366Z,4.60
2023-05-07T21:41:20.459Z,5.00
2023-05-07T21:44:04.499Z,4.97
2023-05-07T21:46:48.367Z,4.53
2023-05-07T21:49:32.246Z,4.80
2023-05-07T21:52:18.570Z,4.60
2023-05-07T21:55:02.472Z,4.17
2023-05-07T21:58:01.313Z,5.80
2023-05-07T22:00:48.800Z,4.90
2023-05-07T22:03:32.718Z,5.27
2023-05-07T22:06:21.656Z,5.30
2023-05-07T22:09:07.928Z,5.53
2023-05-07T22:11:51.752Z,4.93
2023-05-07T22:14:35.929Z,5.57
2023-05-07T22:17:19.794Z,6.57
2023-05-07T22:20:04.093Z,6.70
2023-05-07T22:22:50.244Z,6.43
2023-05-07T22:25:37.379Z,6.70
2023-05-07T22:28:21.466Z,5.87
2023-05-07T22:31:05.418Z,5.40
2023-05-07T22:33:49.284Z,5.80
2023-05-07T22:36:33.360Z,5.33
2023-05-07T22:39:17.149Z,6.93
2023-05-07T22:42:02.504Z,9.27
2023-05-07T22:44:46.415Z,11.47
2023-05-07T22:47:31.004Z,11.67
2023-05-07T22:50:15.400Z,7.27
2023-05-07T22:52:59.390Z,7.13
2023-05-07T22:55:43.243Z,5.77
2023-05-07T22:58:28.452Z,5.80
2023-05-07T23:01:16.482Z,5.27
2023-05-07T23:04:00.434Z,5.80
2023-05-07T23:06:44.282Z,4.80
2023-05-07T23:09:28.154Z,5.27
2023-05-07T23:12:12.452Z,6.40
2023-05-07T23:14:57.862Z,10.23
2023-05-07T23:17:41.854Z,9.40
2023-05-07T23:20:25.713Z,8.97
2023-05-07T23:23:09.640Z,6.93
2023-05-07T23:25:53.746Z,6.63
2023-05-07T23:28:37.655Z,5.03
2023-05-07T23:31:22.992Z,4.63
2023-05-07T23:34:06.813Z,4.40
2023-05-07T23:36:51.229Z,5.57
2023-05-07T23:39:35.242Z,5.77
2023-05-07T23:42:18.976Z,5.53
2023-05-07T23:45:02.943Z,5.93
2023-05-07T23:47:52.423Z,6.30
2023-05-07T23:50:36.585Z,6.27
2023-05-07T23:53:20.451Z,6.07
2023-05-07T23:56:04.547Z,5.77
2023-05-07T23:58:48.398Z,6.30
